CheckWX is a tool to help pilots better visualize weather data.  It is not intended as a substitute for an official pre-flight weather briefing.

12:13:47 UTC

EGUN TAF
RAF Mildenhall Airport
Mildenhall, United Kingdom
TAF EGUN 260400Z 2604/2710 35009KT 6000 BR OVC004 QNH3029INS BECMG 2607/2608 01009KT 9999 NSW OVC008 QNH3031INS BECMG 2609/2610 02012KT 9999 OVC015 QNH3036INS BECMG 2611/2612 02012KT 9999 SCT020 QNH3038INS BECMG 2616/2617 03012KT 9999 SCT015 QNH3040INS BECMG 2701/2702 03012KT 9999 SCT100 QNH3043INS TX19/2612Z TN11/2703Z

Jun-26@
04:00 UTC

Jun-26 @ 04:00 UTC

Jun-26@
07:00 UTC

Jun-26 @ 07:00 UTC

TAF EGUN 260400Z 2604/2710 35009KT 6000 BR OVC004 QNH3029INS

Expired

Wind
  • 350° at 9 KTS
Conditions
Mist
Cloud Levels
  • Overcast at 400' AGL

Jun-26@
07:00 UTC

Jun-26 @ 07:00 UTC

Jun-26@
09:00 UTC

Jun-26 @ 09:00 UTC

BECMG 2607/2608 01009KT 9999 NSW OVC008 QNH3031INS

Expired

Wind
  • 010° at 9 KTS
Conditions
No significant weather
Cloud Levels
  • Overcast at 800' AGL

Jun-26@
09:00 UTC

Jun-26 @ 09:00 UTC

Jun-26@
11:00 UTC

Jun-26 @ 11:00 UTC

BECMG 2609/2610 02012KT 9999 OVC015 QNH3036INS

Expired

Wind
  • 020° at 12 KTS
Conditions
No significant weather
Cloud Levels
  • Overcast at 1,500' AGL

Jun-26@
11:00 UTC

Jun-26 @ 11:00 UTC

Jun-26@
16:00 UTC

Jun-26 @ 16:00 UTC

BECMG 2611/2612 02012KT 9999 SCT020 QNH3038INS

Becoming

Becoming Conditions expected by Wed, Jun 26, 2019 @ 12:00 UTC

Wind
  • 020° at 12 KTS
Conditions
No significant weather
Cloud Levels
  • Scattered at 2,000' AGL

Jun-26@
16:00 UTC

Jun-26 @ 16:00 UTC

Jun-27@
01:00 UTC

Jun-27 @ 01:00 UTC

BECMG 2616/2617 03012KT 9999 SCT015 QNH3040INS

Becoming

Becoming Conditions expected by Wed, Jun 26, 2019 @ 17:00 UTC

Wind
  • 030° at 12 KTS
Conditions
No significant weather
Cloud Levels
  • Scattered at 1,500' AGL

Jun-27@
01:00 UTC

Jun-27 @ 01:00 UTC

Jun-27@
10:00 UTC

Jun-27 @ 10:00 UTC

BECMG 2701/2702 03012KT 9999 SCT100 QNH3043INS TX19/2612Z TN11/2703Z

Becoming

Becoming Conditions expected by Thu, Jun 27, 2019 @ 02:00 UTC

Wind
  • 030° at 12 KTS
Conditions
No significant weather
Cloud Levels
  • Scattered at 10,000' AGL